createdAt,value
2022-12-12T00:02:19.726Z,100249.81
2022-12-12T00:04:46.803Z,100243.78
2022-12-12T00:07:13.955Z,100241.19
2022-12-12T00:09:46.296Z,100242.81
2022-12-12T00:12:13.326Z,100243.88
2022-12-12T00:14:40.332Z,100244.72
2022-12-12T00:17:07.394Z,100245.56
2022-12-12T00:19:34.619Z,100246.50
2022-12-12T00:22:01.543Z,100248.97
2022-12-12T00:24:28.226Z,100249.91
2022-12-12T00:26:55.431Z,100253.56
2022-12-12T00:29:23.144Z,100254.53
2022-12-12T00:31:50.165Z,100254.53
2022-12-12T00:34:17.430Z,100255.47
2022-12-12T00:36:44.267Z,100262.31
2022-12-12T00:39:16.704Z,100264.66
2022-12-12T00:41:45.054Z,100261.81
2022-12-12T00:44:12.112Z,100272.94
2022-12-12T00:46:39.598Z,100274.59
2022-12-12T00:49:06.652Z,100274.59
2022-12-12T00:51:33.283Z,100275.44
2022-12-12T00:54:00.181Z,100266.81
2022-12-12T00:56:28.481Z,100273.19
2022-12-12T00:58:55.133Z,100270.59
2022-12-12T01:01:24.249Z,100267.03
2022-12-12T01:03:51.669Z,100268.09
2022-12-12T01:06:21.028Z,100265.38
2022-12-12T01:08:47.772Z,100265.25
2022-12-12T01:11:15.192Z,100259.94
2022-12-12T01:13:42.845Z,100262.66
2022-12-12T01:16:10.207Z,100273.03
2022-12-12T01:18:37.443Z,100271.28
2022-12-12T01:21:07.552Z,100279.78
2022-12-12T01:23:34.229Z,100276.38
2022-12-12T01:26:02.132Z,100282.38
2022-12-12T01:28:28.858Z,100288.53
2022-12-12T01:30:55.792Z,100287.81
2022-12-12T01:33:22.572Z,100291.13
2022-12-12T01:35:49.378Z,100288.63
2022-12-12T01:38:16.024Z,100290.41
2022-12-12T01:40:42.737Z,100293.97
2022-12-12T01:43:13.852Z,100285.44
2022-12-12T01:46:12.501Z,100295.13
2022-12-12T01:48:45.545Z,100302.91
2022-12-12T01:51:14.972Z,100298.56
2022-12-12T01:53:42.403Z,100309.66
2022-12-12T01:56:12.546Z,100300.94
2022-12-12T01:58:43.748Z,100305.88
2022-12-12T02:01:10.779Z,100306.81
2022-12-12T02:03:39.024Z,100303.28
2022-12-12T02:06:09.003Z,100308.59
2022-12-12T02:08:35.851Z,100308.72
2022-12-12T02:11:02.486Z,100308.94
2022-12-12T02:13:31.092Z,100316.38
2022-12-12T02:16:10.135Z,100311.19
2022-12-12T02:18:39.813Z,100329.97
2022-12-12T02:21:06.406Z,100321.47
2022-12-12T02:23:48.328Z,100326.78
2022-12-12T02:26:15.656Z,100336.22
2022-12-12T02:28:42.288Z,100329.25
2022-12-12T02:31:31.803Z,100338.00
2022-12-12T02:34:01.562Z,100334.69
2022-12-12T02:36:43.495Z,100332.78
2022-12-12T02:39:48.525Z,100332.59
2022-12-12T02:42:30.127Z,100337.53
2022-12-12T02:45:00.129Z,100331.63
2022-12-12T02:47:30.158Z,100323.97
2022-12-12T02:50:08.831Z,100330.91
2022-12-12T02:52:36.461Z,100317.00
2022-12-12T02:55:03.478Z,100318.63
2022-12-12T02:57:30.084Z,100317.81
2022-12-12T02:59:59.499Z,100323.03
2022-12-12T03:02:45.102Z,100328.31
2022-12-12T03:05:43.366Z,100327.25
2022-12-12T03:08:09.985Z,100322.78
2022-12-12T03:10:39.757Z,100321.84
2022-12-12T03:13:21.706Z,100328.69
2022-12-12T03:15:59.389Z,100319.25
2022-12-12T03:18:26.052Z,100320.41
2022-12-12T03:20:56.346Z,100312.72
2022-12-12T03:23:25.430Z,100314.25
2022-12-12T03:25:58.476Z,100317.81
2022-12-12T03:28:35.199Z,100329.97
2022-12-12T03:31:04.400Z,100329.84
2022-12-12T03:33:37.441Z,100333.41
2022-12-12T03:36:10.229Z,100325.72
2022-12-12T03:38:39.933Z,100331.75
2022-12-12T03:41:09.055Z,100331.75
2022-12-12T03:43:39.817Z,100326.41
2022-12-12T03:46:11.782Z,100329.00
2022-12-12T03:48:44.316Z,100334.94
2022-12-12T03:51:14.465Z,100340.72
2022-12-12T03:53:53.875Z,100335.41
2022-12-12T03:56:56.157Z,100339.78
2022-12-12T03:59:27.608Z,100337.28
2022-12-12T04:02:04.554Z,100344.75
2022-12-12T04:04:40.518Z,100329.84
2022-12-12T04:07:13.372Z,100330.78
2022-12-12T04:10:02.687Z,100339.41
2022-12-12T04:13:07.711Z,100343.69
2022-12-12T04:15:47.274Z,100348.88
2022-12-12T04:18:18.432Z,100354.91
2022-12-12T04:21:09.207Z,100344.50
2022-12-12T04:23:35.769Z,100347.00
2022-12-12T04:26:21.036Z,100345.09
2022-12-12T04:28:59.745Z,100352.06
2022-12-12T04:31:27.781Z,100351.38
2022-12-12T04:33:56.598Z,100349.72
2022-12-12T04:36:24.459Z,100357.50
2022-12-12T04:38:52.630Z,100360.22
2022-12-12T04:41:20.985Z,100363.75
2022-12-12T04:43:50.018Z,100362.94
2022-12-12T04:46:19.346Z,100364.72
2022-12-12T04:48:51.808Z,100364.72
2022-12-12T04:51:24.420Z,100359.38
2022-12-12T04:53:58.565Z,100361.88
2022-12-12T04:56:28.425Z,100356.69
2022-12-12T04:58:55.419Z,100363.63
2022-12-12T05:01:34.897Z,100362.94
2022-12-12T05:04:03.550Z,100367.19
2022-12-12T05:06:53.315Z,100367.91
2022-12-12T05:09:20.371Z,100357.25
2022-12-12T05:11:48.173Z,100366.59
2022-12-12T05:14:22.993Z,100358.69
2022-12-12T05:16:53.137Z,100368.97
2022-12-12T05:19:20.121Z,100363.75
2022-12-12T05:21:46.768Z,100373.22
2022-12-12T05:24:15.958Z,100371.69
2022-12-12T05:26:42.629Z,100371.91
2022-12-12T05:29:09.297Z,100375.44
2022-12-12T05:31:35.977Z,100370.25
2022-12-12T05:34:03.225Z,100375.44
2022-12-12T05:36:29.849Z,100383.50
2022-12-12T05:38:56.451Z,100385.38
2022-12-12T05:41:23.263Z,100381.25
2022-12-12T05:43:49.947Z,100379.69
2022-12-12T05:46:16.607Z,100379.22
2022-12-12T05:48:43.475Z,100388.66
2022-12-12T05:51:10.230Z,100379.94
2022-12-12T05:53:42.858Z,100385.13
2022-12-12T05:56:11.677Z,100384.53
2022-12-12T05:58:38.802Z,100385.38
2022-12-12T06:01:05.908Z,100378.63
2022-12-12T06:03:33.370Z,100391.63
2022-12-12T06:06:00.195Z,100391.84
2022-12-12T06:08:26.909Z,100397.88
2022-12-12T06:10:53.557Z,100396.91
2022-12-12T06:13:20.308Z,100400.22
2022-12-12T06:15:46.978Z,100406.97
2022-12-12T06:18:13.868Z,100406.03
2022-12-12T06:20:40.539Z,100404.97
2022-12-12T06:23:07.167Z,100402.97
2022-12-12T06:25:33.847Z,100411.50
2022-12-12T06:28:00.644Z,100413.13
2022-12-12T06:30:27.377Z,100412.19
2022-12-12T06:32:54.040Z,100409.72
2022-12-12T06:35:20.845Z,100413.25
2022-12-12T06:37:48.748Z,100409.94
2022-12-12T06:40:16.613Z,100398.84
2022-12-12T06:42:48.001Z,100399.06
2022-12-12T06:45:15.494Z,100404.25
2022-12-12T06:47:42.476Z,100402.59
2022-12-12T06:50:09.309Z,100406.75
2022-12-12T06:52:35.953Z,100403.22
2022-12-12T06:55:03.833Z,100406.50
2022-12-12T06:57:30.464Z,100405.22
2022-12-12T06:59:57.106Z,100403.19
2022-12-12T07:02:29.539Z,100402.16
2022-12-12T07:04:57.045Z,100405.59
2022-12-12T07:07:23.791Z,100395.88
2022-12-12T07:09:50.420Z,100415.63
2022-12-12T07:12:17.031Z,100418.97
2022-12-12T07:14:43.680Z,100417.88
2022-12-12T07:17:10.344Z,100421.31
2022-12-12T07:19:37.134Z,100422.16
2022-12-12T07:22:09.383Z,100421.41
2022-12-12T07:24:37.019Z,100426.41
2022-12-12T07:27:03.918Z,100433.38
2022-12-12T07:29:30.547Z,100430.88
2022-12-12T07:31:57.153Z,100429.09
2022-12-12T07:34:23.943Z,100432.28
2022-12-12T07:36:55.437Z,100429.69
2022-12-12T07:39:26.030Z,100428.66
2022-12-12T07:41:52.742Z,100432.91
2022-12-12T07:44:22.339Z,100432.19
2022-12-12T07:46:49.034Z,100427.00
2022-12-12T07:49:15.710Z,100427.34
2022-12-12T07:51:48.585Z,100437.16
2022-12-12T07:54:19.620Z,100430.97
2022-12-12T07:56:46.281Z,100436.81
2022-12-12T07:59:13.319Z,100443.53
2022-12-12T08:01:40.147Z,100450.03
2022-12-12T08:04:06.830Z,100461.75
2022-12-12T08:06:33.652Z,100458.19
2022-12-12T08:09:00.348Z,100465.66
2022-12-12T08:11:26.969Z,100461.28
2022-12-12T08:13:53.981Z,100465.41
2022-12-12T08:16:25.225Z,100476.88
2022-12-12T08:18:55.949Z,100475.94
2022-12-12T08:21:25.829Z,100477.94
2022-12-12T08:23:57.383Z,100483.84
2022-12-12T08:26:24.212Z,100483.97
2022-12-12T08:28:50.910Z,100484.78
2022-12-12T08:31:18.114Z,100487.28
2022-12-12T08:33:45.263Z,100491.66
2022-12-12T08:36:13.229Z,100494.25
2022-12-12T08:38:39.893Z,100497.78
2022-12-12T08:41:06.853Z,100492.00
2022-12-12T08:43:33.598Z,100482.53
2022-12-12T08:46:01.090Z,100481.59
2022-12-12T08:48:27.897Z,100480.78
2022-12-12T08:50:54.587Z,100489.50
2022-12-12T08:53:21.364Z,100485.38
2022-12-12T08:55:48.009Z,100489.03
2022-12-12T08:58:14.672Z,100491.53
2022-12-12T09:00:41.679Z,100493.28
2022-12-12T09:03:08.398Z,100489.75
2022-12-12T09:05:35.613Z,100480.19
2022-12-12T09:08:02.453Z,100483.81
2022-12-12T09:10:29.281Z,100480.41
2022-12-12T09:12:55.914Z,100483.81
2022-12-12T09:15:22.530Z,100482.88
2022-12-12T09:17:49.291Z,100488.09
2022-12-12T09:20:16.228Z,100485.84
2022-12-12T09:22:42.965Z,100491.25
2022-12-12T09:25:10.669Z,100486.78
2022-12-12T09:27:37.414Z,100487.38
2022-12-12T09:30:04.490Z,100482.88
2022-12-12T09:32:31.153Z,100484.66
2022-12-12T09:34:57.779Z,100485.50
2022-12-12T09:37:24.405Z,100482.88
2022-12-12T09:39:52.097Z,100479.56
2022-12-12T09:42:23.729Z,100487.50
2022-12-12T09:44:51.813Z,100483.34
2022-12-12T09:47:23.347Z,100488.44
2022-12-12T09:49:51.775Z,100490.91
2022-12-12T09:52:30.813Z,100489.13
2022-12-12T09:54:59.508Z,100489.13
2022-12-12T09:57:26.214Z,100498.13
2022-12-12T09:59:53.110Z,100488.78
2022-12-12T10:02:38.799Z,100491.25
2022-12-12T10:05:14.432Z,100480.25
2022-12-12T10:07:57.887Z,100489.72
2022-12-12T10:10:31.912Z,100481.19
2022-12-12T10:13:05.022Z,100482.97
2022-12-12T10:15:51.672Z,100490.06
2022-12-12T10:18:52.613Z,100495.28
2022-12-12T10:21:49.643Z,100499.63
2022-12-12T10:24:58.821Z,100491.00
2022-12-12T10:27:42.192Z,100494.34
2022-12-12T10:30:17.958Z,100497.63
2022-12-12T10:33:03.212Z,100489.00
2022-12-12T10:35:39.840Z,100491.38
2022-12-12T10:38:24.845Z,100494.69
2022-12-12T10:40:51.455Z,100499.66
2022-12-12T10:43:29.777Z,100491.97
2022-12-12T10:46:32.005Z,100491.53
2022-12-12T10:48:58.744Z,100489.63
2022-12-12T10:51:28.034Z,100480.03
2022-12-12T10:53:55.114Z,100490.34
2022-12-12T10:56:23.708Z,100496.25
2022-12-12T10:58:57.687Z,100491.88
2022-12-12T11:04:20.565Z,100490.81
2022-12-12T11:06:49.865Z,100488.13
2022-12-12T11:09:24.500Z,100484.53
2022-12-12T11:11:59.634Z,100490.22
2022-12-12T11:14:37.175Z,100483.16
2022-12-12T11:17:19.690Z,100487.31
2022-12-12T11:19:46.599Z,100482.78
2022-12-12T11:22:13.855Z,100480.09
2022-12-12T11:24:43.742Z,100473.22
2022-12-12T11:27:17.952Z,100471.44
2022-12-12T11:29:46.514Z,100467.91
2022-12-12T11:32:17.792Z,100466.16
2022-12-12T11:34:46.474Z,100472.28
2022-12-12T11:37:17.407Z,100468.84
2022-12-12T11:39:45.899Z,100464.22
2022-12-12T11:42:15.765Z,100464.13
2022-12-12T11:44:44.032Z,100469.06
2022-12-12T11:47:23.180Z,100475.84
2022-12-12T11:49:54.838Z,100479.25
2022-12-12T11:52:23.798Z,100473.91
2022-12-12T11:54:51.040Z,100478.31
2022-12-12T11:57:36.785Z,100475.09
2022-12-12T12:00:06.662Z,100475.34
2022-12-12T12:02:52.192Z,100480.56
2022-12-12T12:05:25.021Z,100479.25
2022-12-12T12:07:51.730Z,100476.75
2022-12-12T12:10:34.661Z,100474.41
2022-12-12T12:13:19.511Z,100473.47
2022-12-12T12:15:56.033Z,100476.06
2022-12-12T12:18:28.524Z,100469.78
2022-12-12T12:21:10.359Z,100463.75
2022-12-12T12:23:55.615Z,100472.19
2022-12-12T12:26:30.572Z,100472.88
2022-12-12T12:29:02.172Z,100471.94
2022-12-12T12:31:41.143Z,100464.59
2022-12-12T12:34:26.604Z,100468.25
2022-12-12T12:37:16.378Z,100460.56
2022-12-12T12:39:45.918Z,100451.84
2022-12-12T12:42:34.610Z,100452.66
2022-12-12T12:45:10.167Z,100443.31
2022-12-12T12:47:42.702Z,100442.59
2022-12-12T12:50:24.403Z,100439.16
2022-12-12T12:53:07.957Z,100440.00
2022-12-12T12:55:55.830Z,100438.81
2022-12-12T12:58:27.751Z,100437.88
2022-12-12T13:01:05.647Z,100433.50
2022-12-12T13:03:37.035Z,100434.31
2022-12-12T13:06:09.040Z,100438.81
2022-12-12T13:08:51.174Z,100444.72
2022-12-12T13:11:27.577Z,100437.75
2022-12-12T13:13:57.342Z,100446.38
2022-12-12T13:16:26.840Z,100440.09
2022-12-12T13:19:14.731Z,100427.81
2022-12-12T13:21:46.948Z,100441.88
2022-12-12T13:24:20.165Z,100446.03
2022-12-12T13:26:56.057Z,100433.94
2022-12-12T13:29:35.440Z,100429.56
2022-12-12T13:32:02.303Z,100435.63
2022-12-12T13:34:30.053Z,100431.34
2022-12-12T13:36:57.400Z,100420.09
2022-12-12T13:39:29.692Z,100416.56
2022-12-12T13:42:01.856Z,100426.97
2022-12-12T13:44:33.359Z,100419.16
2022-12-12T13:47:00.100Z,100415.00
2022-12-12T13:49:32.977Z,100412.88
2022-12-12T13:52:32.207Z,100422.91
2022-12-12T13:55:13.838Z,100418.69
2022-12-12T13:58:06.067Z,100423.19
2022-12-12T14:00:33.706Z,100423.06
2022-12-12T14:03:02.126Z,100426.13
2022-12-12T14:05:32.151Z,100421.75
2022-12-12T14:07:58.854Z,100424.47
2022-12-12T14:10:27.577Z,100415.94
2022-12-12T14:12:58.841Z,100423.06
2022-12-12T14:15:32.378Z,100417.03
2022-12-12T14:18:00.442Z,100419.75
2022-12-12T14:20:34.798Z,100420.81
2022-12-12T14:23:07.346Z,100413.03
2022-12-12T14:25:35.056Z,100404.38
2022-12-12T14:28:14.660Z,100402.72
2022-12-12T14:30:49.370Z,100405.44
2022-12-12T14:33:16.029Z,100415.63
2022-12-12T14:35:49.701Z,100407.00
2022-12-12T14:38:27.776Z,100414.66
2022-12-12T14:40:57.399Z,100413.59
2022-12-12T14:43:30.105Z,100419.63
2022-12-12T14:45:58.288Z,100416.09
2022-12-12T14:48:28.255Z,100422.13
2022-12-12T14:51:01.002Z,100422.81
2022-12-12T14:53:37.178Z,100418.31
2022-12-12T14:56:08.809Z,100413.34
2022-12-12T14:58:36.982Z,100405.69
2022-12-12T15:01:05.076Z,100410.06
2022-12-12T15:03:51.191Z,100411.56
2022-12-12T15:06:21.065Z,100409.56
2022-12-12T15:08:48.160Z,100414.63
2022-12-12T15:11:15.460Z,100424.22
2022-12-12T15:13:52.340Z,100424.09
2022-12-12T15:16:20.582Z,100424.00
2022-12-12T15:18:48.183Z,100425.66
2022-12-12T15:21:19.615Z,100427.28
2022-12-12T15:23:46.251Z,100432.25
2022-12-12T15:26:16.687Z,100426.91
2022-12-12T15:28:45.486Z,100427.88
2022-12-12T15:31:15.131Z,100440.75
2022-12-12T15:33:41.812Z,100438.97
2022-12-12T15:36:38.105Z,100442.19
2022-12-12T15:39:15.842Z,100434.38
2022-12-12T15:41:43.783Z,100443.81
2022-12-12T15:44:17.590Z,100452.34
2022-12-12T15:46:44.920Z,100453.28
2022-12-12T15:49:30.590Z,100447.97
2022-12-12T15:51:57.533Z,100445.13
2022-12-12T15:54:25.323Z,100449.38
2022-12-12T15:56:52.265Z,100444.16
2022-12-12T15:59:27.309Z,100456.25
2022-12-12T16:01:54.363Z,100453.63
2022-12-12T16:04:22.969Z,100456.34
2022-12-12T16:06:50.426Z,100465.94
2022-12-12T16:09:18.964Z,100462.41
2022-12-12T16:11:48.958Z,100461.19
2022-12-12T16:14:19.003Z,100462.41
2022-12-12T16:16:47.592Z,100460.75
2022-12-12T16:19:17.721Z,100462.50
2022-12-12T16:21:44.706Z,100457.31
2022-12-12T16:24:13.258Z,100461.56
2022-12-12T16:26:40.180Z,100466.09
2022-12-12T16:29:07.305Z,100461.69
2022-12-12T16:31:34.422Z,100455.78
2022-12-12T16:34:02.902Z,100455.06
2022-12-12T16:36:29.993Z,100454.22
2022-12-12T16:38:57.189Z,100446.44
2022-12-12T16:41:24.404Z,100449.75
2022-12-12T16:43:51.644Z,100455.06
2022-12-12T16:46:20.381Z,100450.81
2022-12-12T16:48:47.570Z,100452.59
2022-12-12T16:51:17.208Z,100453.41
2022-12-12T16:53:44.400Z,100457.66
2022-12-12T16:56:11.613Z,100453.06
2022-12-12T16:58:38.805Z,100453.88
2022-12-12T17:01:06.178Z,100457.31
2022-12-12T17:03:33.245Z,100457.19
2022-12-12T17:06:01.870Z,100450.47
2022-12-12T17:08:28.935Z,100452.25
2022-12-12T17:11:09.361Z,100453.88
2022-12-12T17:13:38.053Z,100454.00
2022-12-12T17:16:05.253Z,100454.84
2022-12-12T17:18:32.327Z,100460.28
2022-12-12T17:20:59.352Z,100450.94
2022-12-12T17:26:01.054Z,100449.53
2022-12-12T17:28:30.310Z,100452.16
2022-12-12T17:30:57.594Z,100453.91
2022-12-12T17:33:24.518Z,100459.94
2022-12-12T17:35:54.449Z,100457.34
2022-12-12T17:38:21.348Z,100462.66
2022-12-12T17:40:49.424Z,100462.78
2022-12-12T17:43:16.332Z,100463.59
2022-12-12T17:45:43.370Z,100462.19
2022-12-12T17:48:10.438Z,100460.66
2022-12-12T17:50:41.801Z,100463.41
2022-12-12T17:53:09.142Z,100461.75
2022-12-12T17:55:53.675Z,100464.34
2022-12-12T17:58:29.451Z,100467.78
2022-12-12T18:00:56.873Z,100466.13
2022-12-12T18:03:23.860Z,100468.00
2022-12-12T18:05:50.901Z,100471.69
2022-12-12T18:08:18.595Z,100471.09
2022-12-12T18:10:45.541Z,100468.50
2022-12-12T18:13:12.464Z,100473.81
2022-12-12T18:15:41.838Z,100469.81
2022-12-12T18:18:08.860Z,100472.41
2022-12-12T18:20:35.904Z,100463.31
2022-12-12T18:23:03.385Z,100465.44
2022-12-12T18:25:30.308Z,100464.00
2022-12-12T18:27:58.103Z,100471.94
2022-12-12T18:30:25.188Z,100472.97
2022-12-12T18:32:52.571Z,100472.97
2022-12-12T18:35:19.705Z,100473.13
2022-12-12T18:37:46.659Z,100480.31
2022-12-12T18:40:14.695Z,100474.16
2022-12-12T18:42:41.936Z,100486.34
2022-12-12T18:45:10.015Z,100481.97
2022-12-12T18:47:37.060Z,100481.88
2022-12-12T18:50:04.660Z,100490.03
2022-12-12T18:52:33.182Z,100484.09
2022-12-12T18:55:00.341Z,100478.66
2022-12-12T18:57:28.309Z,100480.31
2022-12-12T18:59:55.840Z,100481.50
2022-12-12T19:02:23.300Z,100491.06
2022-12-12T19:04:51.580Z,100478.91
2022-12-12T19:07:18.960Z,100489.31
2022-12-12T19:09:46.744Z,100490.25
2022-12-12T19:12:14.130Z,100492.97
2022-12-12T19:15:08.138Z,100486.94
2022-12-12T19:17:28.420Z,100489.66
2022-12-12T19:23:00.968Z,100484.34
2022-12-12T19:25:27.981Z,100498.88
2022-12-12T19:27:54.929Z,100498.03
2022-12-12T19:30:22.080Z,100493.19
2022-12-12T19:32:49.347Z,100494.13
2022-12-12T19:35:16.942Z,100493.44
2022-12-12T19:37:44.711Z,100487.63
2022-12-12T19:40:12.903Z,100496.16
2022-12-12T19:42:40.363Z,100486.47
2022-12-12T19:45:07.926Z,100499.47
2022-12-12T19:47:35.036Z,100494.28
2022-12-12T19:50:02.106Z,100505.50
2022-12-12T19:52:29.492Z,100495.69
2022-12-12T19:54:56.383Z,100506.94
2022-12-12T19:57:26.521Z,100498.97
2022-12-12T19:59:53.802Z,100503.13
2022-12-12T20:02:20.988Z,100511.53
2022-12-12T20:04:47.932Z,100509.66
2022-12-12T20:07:14.830Z,100512.00
2022-12-12T20:09:41.751Z,100519.59
2022-12-12T20:12:08.589Z,100508.94
2022-12-12T20:14:35.718Z,100512.03
2022-12-12T20:17:03.368Z,100517.81
2022-12-12T20:19:30.340Z,100518.53
2022-12-12T20:22:02.121Z,100525.16
2022-12-12T20:24:29.872Z,100535.44
2022-12-12T20:26:56.828Z,100540.41
2022-12-12T20:29:23.807Z,100542.91
2022-12-12T20:31:51.070Z,100532.59
2022-12-12T20:34:19.608Z,100525.50
2022-12-12T20:36:46.856Z,100524.44
2022-12-12T20:39:16.756Z,100534.63
2022-12-12T20:41:44.278Z,100532.72
2022-12-12T20:44:12.597Z,100527.50
2022-12-12T20:46:40.880Z,100523.97
2022-12-12T20:49:10.776Z,100525.63
2022-12-12T20:54:25.507Z,100524.91
2022-12-12T20:56:53.234Z,100532.38
2022-12-12T20:59:20.241Z,100521.97
2022-12-12T21:01:47.770Z,100523.00
2022-12-12T21:04:15.563Z,100537.59
2022-12-12T21:06:44.941Z,100523.50
2022-12-12T21:09:17.768Z,100526.91
2022-12-12T21:11:48.180Z,100521.97
2022-12-12T21:14:15.077Z,100521.25
2022-12-12T21:16:42.033Z,100530.00
2022-12-12T21:19:11.667Z,100525.03
2022-12-12T21:21:39.361Z,100524.56
2022-12-12T21:24:06.763Z,100521.34
2022-12-12T21:26:34.223Z,100529.41
2022-12-12T21:29:02.188Z,100521.13
2022-12-12T21:31:30.760Z,100528.09
2022-12-12T21:33:58.337Z,100527.16
2022-12-12T21:36:26.097Z,100529.75
2022-12-12T21:38:53.385Z,100522.31
2022-12-12T21:41:21.733Z,100514.50
2022-12-12T21:43:48.842Z,100521.25
2022-12-12T21:46:17.505Z,100522.31
2022-12-12T21:48:44.436Z,100530.00
2022-12-12T21:51:13.546Z,100520.41
2022-12-12T21:53:41.970Z,100518.78
2022-12-12T21:56:11.841Z,100518.78
2022-12-12T21:58:39.787Z,100517.13
2022-12-12T22:01:07.773Z,100510.25
2022-12-12T22:03:34.972Z,100513.78
2022-12-12T22:06:08.733Z,100516.38
2022-12-12T22:08:35.856Z,100514.88
2022-12-12T22:11:02.734Z,100513.09
2022-12-12T22:13:29.871Z,100508.84
2022-12-12T22:15:59.107Z,100510.03
2022-12-12T22:18:26.036Z,100513.56
2022-12-12T22:20:52.940Z,100520.75
2022-12-12T22:23:20.493Z,100517.34
2022-12-12T22:25:47.403Z,100522.41
2022-12-12T22:28:14.427Z,100523.50
2022-12-12T22:30:42.427Z,100533.75
2022-12-12T22:33:09.316Z,100527.75
2022-12-12T22:35:36.357Z,100531.16
2022-12-12T22:38:03.323Z,100546.06
2022-12-12T22:40:30.224Z,100549.72
2022-12-12T22:42:58.164Z,100549.13
2022-12-12T22:45:26.161Z,100542.16
2022-12-12T22:47:53.049Z,100535.41
2022-12-12T22:50:20.007Z,100539.66
2022-12-12T22:52:46.896Z,100545.22
2022-12-12T22:55:13.886Z,100542.63
2022-12-12T22:57:40.828Z,100550.41
2022-12-12T23:00:10.660Z,100536.72
2022-12-12T23:02:37.663Z,100540.94
2022-12-12T23:05:04.864Z,100534.59
2022-12-12T23:07:31.749Z,100539.44
2022-12-12T23:09:59.268Z,100536.72
2022-12-12T23:12:26.142Z,100538.16
2022-12-12T23:14:53.058Z,100535.31
2022-12-12T23:17:20.020Z,100538.38
2022-12-12T23:19:46.884Z,100532.00
2022-12-12T23:22:13.757Z,100538.63
2022-12-12T23:24:40.628Z,100532.47
2022-12-12T23:27:07.690Z,100543.03
2022-12-12T23:29:34.564Z,100542.66
2022-12-12T23:32:03.245Z,100541.69
2022-12-12T23:34:30.433Z,100537.22
2022-12-12T23:36:57.373Z,100530.13
2022-12-12T23:39:24.919Z,100522.31
2022-12-12T23:41:51.938Z,100522.31
2022-12-12T23:44:19.954Z,100529.41
2022-12-12T23:46:47.136Z,100535.81
2022-12-12T23:49:17.756Z,100534.13
2022-12-12T23:51:45.978Z,100538.50
2022-12-12T23:54:14.780Z,100536.25
2022-12-12T23:56:41.890Z,100518.50
2022-12-12T23:59:14.040Z,100518.50
